Time;durP1;ratioP1;P1;durP2;ratioP2;P2;SDS_P1;SDS_P2;PMS_P1;PMS_P2;Temp;Humidity;BMP_temperature;BMP_pressure;BME280_temperature;BME280_humidity;BME280_pressure;Samples;Min_cycle;Max_cycle;Signal;HPM_P1;HPM_P2
2021/05/15 00:01:55;;;;;;;11.80;9.98;;;;;;;;;;5095635;28;20429;-62
2021/05/15 00:04:21;;;;;;;13.20;11.65;;;;;;;;;;5095647;28;20031;-61
2021/05/15 00:06:46;;;;;;;14.52;11.13;;;;;;;;;;5095768;28;20019;-61
2021/05/15 00:09:12;;;;;;;13.68;10.73;;;;;;;;;;5095618;28;20036;-61
2021/05/15 00:11:37;;;;;;;11.40;9.95;;;;;;;;;;5095486;28;20020;-62
2021/05/15 00:14:03;;;;;;;12.48;9.98;;;;;;;;;;5094042;28;20028;-62
2021/05/15 00:16:29;;;;;;;13.48;10.60;;;;;;;;;;5095446;28;20641;-62
2021/05/15 00:18:55;;;;;;;12.20;10.57;;;;;;;;;;5094222;28;20034;-61
2021/05/15 00:21:20;;;;;;;13.52;11.32;;;;;;;;;;5095420;28;20024;-63
2021/05/15 00:23:45;;;;;;;16.77;12.13;;;;;;;;;;5095492;28;20031;-62
2021/05/15 00:26:14;;;;;;;14.57;11.07;;;;;;;;;;5095259;28;20111;-62
2021/05/15 00:28:39;;;;;;;13.00;11.50;;;;;;;;;;5093800;28;20039;-62
2021/05/15 00:31:05;;;;;;;13.13;10.80;;;;;;;;;;5095070;28;20020;-62
2021/05/15 00:33:30;;;;;;;14.07;9.90;;;;;;;;;;5094589;28;20036;-62
2021/05/15 00:35:56;;;;;;;10.85;9.63;;;;;;;;;;5094926;28;20028;-62
2021/05/15 00:38:21;;;;;;;10.48;9.20;;;;;;;;;;5095200;28;20028;-62
2021/05/15 00:40:47;;;;;;;11.27;9.60;;;;;;;;;;5094886;28;20008;-62
2021/05/15 00:43:13;;;;;;;10.00;8.93;;;;;;;;;;5093762;28;20036;-62
2021/05/15 00:45:38;;;;;;;12.90;8.63;;;;;;;;;;5094828;28;20017;-62
2021/05/15 00:48:04;;;;;;;9.88;8.70;;;;;;;;;;5094892;28;20420;-62
2021/05/15 00:50:30;;;;;;;10.95;9.50;;;;;;;;;;5094833;28;20013;-63
2021/05/15 00:52:56;;;;;;;10.55;9.40;;;;;;;;;;5094512;28;20085;-63
2021/05/15 00:55:21;;;;;;;11.48;8.90;;;;;;;;;;5093295;28;20062;-62
2021/05/15 00:57:47;;;;;;;11.30;9.75;;;;;;;;;;5094719;28;20027;-63
2021/05/15 01:00:13;;;;;;;10.77;9.35;;;;;;;;;;5094370;28;20359;-63
2021/05/15 01:02:39;;;;;;;13.82;10.38;;;;;;;;;;5094580;28;20020;-63
2021/05/15 01:05:05;;;;;;;10.75;9.15;;;;;;;;;;5094460;28;20492;-63
2021/05/15 01:07:31;;;;;;;13.15;11.40;;;;;;;;;;5094365;28;20043;-63
2021/05/15 01:09:56;;;;;;;14.32;11.55;;;;;;;;;;5094478;28;20024;-63
2021/05/15 01:12:22;;;;;;;13.30;11.38;;;;;;;;;;5094675;28;20031;-63
2021/05/15 01:14:48;;;;;;;15.95;11.85;;;;;;;;;;5094474;28;20026;-63
2021/05/15 01:17:15;;;;;;;14.90;12.05;;;;;;;;;;5094110;28;20024;-63
2021/05/15 01:19:41;;;;;;;14.43;12.52;;;;;;;;;;5094292;28;20029;-63
2021/05/15 01:22:13;;;;;;;13.10;11.73;;;;;;;;;;5094031;28;20020;-63
2021/05/15 01:24:39;;;;;;;16.17;12.63;;;;;;;;;;5092812;28;20414;-63
2021/05/15 01:27:06;;;;;;;16.73;12.38;;;;;;;;;;5094211;28;20085;-63
2021/05/15 01:29:31;;;;;;;16.50;12.20;;;;;;;;;;5094026;28;20036;-63
2021/05/15 01:31:57;;;;;;;14.32;12.80;;;;;;;;;;5093918;28;20443;-63
2021/05/15 01:34:22;;;;;;;14.75;12.30;;;;;;;;;;5093081;28;20085;-62
2021/05/15 01:36:48;;;;;;;14.55;12.95;;;;;;;;;;5075620;28;20024;-62
2021/05/15 01:39:15;;;;;;;15.02;12.82;;;;;;;;;;5093978;28;20096;-62
2021/05/15 01:41:40;;;;;;;14.25;11.90;;;;;;;;;;5093616;28;20466;-62
2021/05/15 01:44:06;;;;;;;12.70;11.35;;;;;;;;;;5093741;28;20028;-63
2021/05/15 01:46:31;;;;;;;13.30;11.20;;;;;;;;;;5093800;28;20133;-62
2021/05/15 01:48:57;;;;;;;11.77;9.98;;;;;;;;;;5091584;28;20524;-62
2021/05/15 01:51:22;;;;;;;11.45;9.70;;;;;;;;;;5093915;28;20032;-62
2021/05/15 01:53:49;;;;;;;11.32;9.82;;;;;;;;;;5093878;28;20036;-62
2021/05/15 01:56:16;;;;;;;11.45;9.85;;;;;;;;;;5093969;28;20020;-62
2021/05/15 01:58:42;;;;;;;13.48;10.27;;;;;;;;;;5094011;28;20355;-62
2021/05/15 02:01:07;;;;;;;13.70;10.13;;;;;;;;;;5093911;28;20035;-62
2021/05/15 02:03:34;;;;;;;15.02;11.82;;;;;;;;;;5093686;28;20032;-62
2021/05/15 02:05:59;;;;;;;17.80;12.73;;;;;;;;;;5093319;28;20051;-62
2021/05/15 02:08:25;;;;;;;17.48;12.65;;;;;;;;;;5093771;28;20059;-62
2021/05/15 02:10:51;;;;;;;16.85;11.98;;;;;;;;;;5093742;28;20417;-61
2021/05/15 02:13:18;;;;;;;20.48;13.35;;;;;;;;;;5093538;28;20090;-61
2021/05/15 02:15:44;;;;;;;24.17;13.80;;;;;;;;;;5092357;28;20446;-62
2021/05/15 02:18:09;;;;;;;18.90;12.93;;;;;;;;;;5092179;28;20028;-62
2021/05/15 02:20:35;;;;;;;19.35;13.45;;;;;;;;;;5092192;28;20020;-62
2021/05/15 02:23:01;;;;;;;21.17;14.48;;;;;;;;;;5093471;28;20024;-63
2021/05/15 02:25:27;;;;;;;18.92;14.00;;;;;;;;;;5093359;28;20355;-63
2021/05/15 02:27:53;;;;;;;19.58;13.85;;;;;;;;;;5093234;28;20028;-63
2021/05/15 02:30:19;;;;;;;21.50;14.77;;;;;;;;;;5092263;28;20016;-63
2021/05/15 02:32:45;;;;;;;20.60;13.98;;;;;;;;;;5092047;28;20371;-63
2021/05/15 02:35:10;;;;;;;19.23;14.02;;;;;;;;;;5092948;28;20047;-63
2021/05/15 02:37:36;;;;;;;19.65;14.13;;;;;;;;;;5093247;28;20031;-62
2021/05/15 02:40:01;;;;;;;20.65;14.48;;;;;;;;;;5092008;28;20032;-63
2021/05/15 02:42:27;;;;;;;19.58;13.38;;;;;;;;;;5092149;28;20032;-63
2021/05/15 02:44:52;;;;;;;19.65;13.20;;;;;;;;;;5093278;28;20028;-63
2021/05/15 02:47:20;;;;;;;20.77;13.38;;;;;;;;;;5093166;28;20112;-63
2021/05/15 02:49:47;;;;;;;17.30;12.65;;;;;;;;;;5093266;28;20026;-63
2021/05/15 02:52:12;;;;;;;19.30;13.60;;;;;;;;;;5092157;28;20036;-63
2021/05/15 02:54:38;;;;;;;21.38;13.65;;;;;;;;;;5093423;28;20012;-63
2021/05/15 02:57:03;;;;;;;20.70;14.30;;;;;;;;;;5092104;28;20024;-63
2021/05/15 02:59:29;;;;;;;18.17;13.35;;;;;;;;;;5093303;28;20354;-63
2021/05/15 03:01:54;;;;;;;18.35;13.60;;;;;;;;;;5095581;28;20105;-63
2021/05/15 03:04:20;;;;;;;21.92;13.93;;;;;;;;;;5096842;28;20103;-63
2021/05/15 03:06:45;;;;;;;17.08;12.57;;;;;;;;;;5096864;28;20055;-63
2021/05/15 03:09:11;;;;;;;23.33;14.48;;;;;;;;;;5096756;28;20098;-63
2021/05/15 03:11:36;;;;;;;20.88;15.25;;;;;;;;;;5096960;28;20042;-62
2021/05/15 03:14:02;;;;;;;24.35;16.52;;;;;;;;;;5096593;28;20028;-62
2021/05/15 03:16:27;;;;;;;19.48;14.75;;;;;;;;;;5095307;28;20485;-62
2021/05/15 03:18:53;;;;;;;18.00;13.18;;;;;;;;;;5096769;28;20085;-63
2021/05/15 03:21:18;;;;;;;18.23;13.05;;;;;;;;;;5096651;28;20368;-63
2021/05/15 03:23:43;;;;;;;18.65;13.43;;;;;;;;;;5096261;28;20024;-62
2021/05/15 03:26:09;;;;;;;18.35;13.60;;;;;;;;;;5096530;28;20028;-63
2021/05/15 03:28:34;;;;;;;18.15;12.82;;;;;;;;;;5096570;28;20458;-62
2021/05/15 03:31:01;;;;;;;17.52;12.35;;;;;;;;;;5094908;28;20114;-62
2021/05/15 03:33:26;;;;;;;21.45;14.82;;;;;;;;;;5094660;28;20117;-63
2021/05/15 03:35:52;;;;;;;19.02;14.13;;;;;;;;;;5096205;28;20048;-63
2021/05/15 03:38:17;;;;;;;18.52;12.57;;;;;;;;;;5096219;28;20032;-62
2021/05/15 03:40:43;;;;;;;19.27;13.68;;;;;;;;;;5096204;28;20032;-62
2021/05/15 03:43:08;;;;;;;13.60;10.50;;;;;;;;;;5096386;28;20075;-63
2021/05/15 03:45:34;;;;;;;15.20;11.10;;;;;;;;;;5096450;28;20020;-63
2021/05/15 03:47:59;;;;;;;16.65;11.35;;;;;;;;;;5095984;28;20469;-62
2021/05/15 03:50:26;;;;;;;18.73;12.32;;;;;;;;;;5096156;28;20024;-62
2021/05/15 03:52:52;;;;;;;15.18;11.65;;;;;;;;;;5096147;28;20382;-62
2021/05/15 03:55:19;;;;;;;17.58;11.75;;;;;;;;;;5096191;28;20036;-62
2021/05/15 03:57:44;;;;;;;17.67;11.38;;;;;;;;;;5095726;28;20042;-63
2021/05/15 04:00:10;;;;;;;13.27;10.65;;;;;;;;;;5095765;28;20056;-62
2021/05/15 04:02:40;;;;;;;14.98;11.00;;;;;;;;;;5095815;28;20016;-62
2021/05/15 04:05:06;;;;;;;16.15;11.50;;;;;;;;;;5095876;28;20051;-62
2021/05/15 04:07:31;;;;;;;16.10;11.55;;;;;;;;;;5094464;28;20062;-62
2021/05/15 04:09:57;;;;;;;16.95;11.82;;;;;;;;;;5095552;28;20035;-62
2021/05/15 04:12:24;;;;;;;16.63;11.75;;;;;;;;;;5094907;28;20028;-62
2021/05/15 04:15:02;;;;;;;17.95;11.27;;;;;;;;;;5095489;28;20115;-62
2021/05/15 04:17:28;;;;;;;15.73;11.07;;;;;;;;;;5095543;28;20020;-62
2021/05/15 04:19:54;;;;;;;13.20;10.15;;;;;;;;;;5094126;28;20027;-62
2021/05/15 04:22:20;;;;;;;14.05;10.25;;;;;;;;;;5095548;28;20028;-62
2021/05/15 04:24:45;;;;;;;15.43;11.23;;;;;;;;;;5095501;28;20090;-62
2021/05/15 04:27:12;;;;;;;13.38;10.70;;;;;;;;;;5095213;28;20028;-62
2021/05/15 04:29:37;;;;;;;14.70;11.07;;;;;;;;;;5094994;28;20031;-62
2021/05/15 04:32:03;;;;;;;13.77;9.82;;;;;;;;;;5094909;28;20028;-62
2021/05/15 04:34:29;;;;;;;14.38;9.52;;;;;;;;;;5093147;28;20047;-62
2021/05/15 04:36:56;;;;;;;13.20;10.43;;;;;;;;;;5093808;28;20030;-62
2021/05/15 04:39:22;;;;;;;13.30;9.05;;;;;;;;;;5093747;28;20036;-62
2021/05/15 04:41:48;;;;;;;13.90;11.32;;;;;;;;;;5093752;28;20097;-61
2021/05/15 04:44:13;;;;;;;12.60;9.90;;;;;;;;;;5095013;28;20023;-62
2021/05/15 04:46:38;;;;;;;13.45;9.68;;;;;;;;;;5094907;28;20123;-61
2021/05/15 04:49:04;;;;;;;13.52;10.55;;;;;;;;;;5094797;28;20021;-62
2021/05/15 04:51:30;;;;;;;12.68;9.48;;;;;;;;;;5094822;28;20028;-63
2021/05/15 04:53:55;;;;;;;14.68;9.82;;;;;;;;;;5093308;28;20027;-62
2021/05/15 04:56:22;;;;;;;12.77;9.13;;;;;;;;;;5094920;28;20024;-61
2021/05/15 04:58:48;;;;;;;12.95;9.30;;;;;;;;;;5093798;28;20103;-62
2021/05/15 05:01:13;;;;;;;13.48;9.45;;;;;;;;;;5094027;28;20115;-62
2021/05/15 05:03:39;;;;;;;12.18;9.57;;;;;;;;;;5093944;28;20407;-62
2021/05/15 05:06:04;;;;;;;11.98;9.50;;;;;;;;;;5094058;28;20111;-62
2021/05/15 05:08:30;;;;;;;13.63;10.02;;;;;;;;;;5094101;28;20012;-62
2021/05/15 05:10:55;;;;;;;9.18;8.05;;;;;;;;;;5093643;28;20477;-62
2021/05/15 05:13:21;;;;;;;9.27;7.45;;;;;;;;;;5094312;28;20020;-62
2021/05/15 05:15:47;;;;;;;7.75;5.90;;;;;;;;;;5093742;28;20119;-62
2021/05/15 05:18:13;;;;;;;8.77;6.05;;;;;;;;;;5092742;28;20027;-62
2021/05/15 05:20:39;;;;;;;7.40;6.65;;;;;;;;;;5093669;28;20031;-61
2021/05/15 05:23:05;;;;;;;8.13;7.32;;;;;;;;;;5093555;28;20386;-62
2021/05/15 05:25:33;;;;;;;7.22;5.60;;;;;;;;;;5093865;28;20024;-62
2021/05/15 05:27:59;;;;;;;6.18;5.57;;;;;;;;;;5093613;28;20420;-62
2021/05/15 05:30:25;;;;;;;7.88;5.03;;;;;;;;;;5093825;28;20084;-62
2021/05/15 05:32:51;;;;;;;7.03;6.35;;;;;;;;;;5094056;28;20020;-62
2021/05/15 05:35:17;;;;;;;7.32;6.65;;;;;;;;;;5093436;28;20075;-62
2021/05/15 05:37:42;;;;;;;7.95;6.80;;;;;;;;;;5093504;28;20051;-62
2021/05/15 05:40:10;;;;;;;7.00;5.85;;;;;;;;;;5093962;28;20477;-62
2021/05/15 05:42:36;;;;;;;10.27;7.60;;;;;;;;;;5093444;28;20448;-62
2021/05/15 05:45:03;;;;;;;8.00;7.22;;;;;;;;;;5093827;28;20440;-61
2021/05/15 05:47:28;;;;;;;7.95;7.20;;;;;;;;;;5093578;28;20031;-62
2021/05/15 05:49:55;;;;;;;8.63;7.35;;;;;;;;;;5093620;28;20374;-62
2021/05/15 05:52:20;;;;;;;8.30;7.40;;;;;;;;;;5093884;28;20039;-62
2021/05/15 05:54:45;;;;;;;9.05;7.13;;;;;;;;;;5093404;28;20074;-62
2021/05/15 05:57:11;;;;;;;8.13;6.13;;;;;;;;;;5093494;28;20020;-63
2021/05/15 05:59:36;;;;;;;9.05;7.88;;;;;;;;;;5093124;28;20036;-62
2021/05/15 06:02:02;;;;;;;5.82;5.25;;;;;;;;;;5091030;28;20048;-62
2021/05/15 06:04:27;;;;;;;9.82;8.35;;;;;;;;;;5093570;28;20028;-62
2021/05/15 06:06:53;;;;;;;8.82;7.82;;;;;;;;;;5093484;28;20019;-62
2021/05/15 06:09:19;;;;;;;10.48;8.30;;;;;;;;;;5094006;28;20043;-62
2021/05/15 06:11:46;;;;;;;5.88;5.15;;;;;;;;;;5093374;28;20031;-62
2021/05/15 06:14:11;;;;;;;9.15;6.85;;;;;;;;;;5093138;28;20383;-62
2021/05/15 06:16:36;;;;;;;10.50;8.05;;;;;;;;;;5093105;28;20024;-62
2021/05/15 06:19:02;;;;;;;8.68;6.63;;;;;;;;;;5093137;28;20052;-62
2021/05/15 06:21:27;;;;;;;8.55;6.57;;;;;;;;;;5093397;28;20051;-62
2021/05/15 06:23:53;;;;;;;9.23;6.05;;;;;;;;;;5093275;28;20089;-62
2021/05/15 06:26:18;;;;;;;8.38;6.82;;;;;;;;;;5092433;28;20370;-63
2021/05/15 06:28:44;;;;;;;12.45;9.82;;;;;;;;;;5093014;28;20024;-63
2021/05/15 06:31:09;;;;;;;9.23;6.97;;;;;;;;;;5093074;28;20590;-63
2021/05/15 06:33:36;;;;;;;8.82;7.32;;;;;;;;;;5092464;28;20040;-64
2021/05/15 06:36:01;;;;;;;14.60;8.82;;;;;;;;;;5095834;28;20462;-64
2021/05/15 06:38:27;;;;;;;8.48;6.97;;;;;;;;;;5095878;28;20134;-64
2021/05/15 06:40:52;;;;;;;10.73;7.70;;;;;;;;;;5097352;28;20477;-64
2021/05/15 06:43:18;;;;;;;9.65;7.07;;;;;;;;;;5096266;28;20024;-64
2021/05/15 06:45:43;;;;;;;6.05;5.30;;;;;;;;;;5097501;28;20019;-64
2021/05/15 06:48:09;;;;;;;4.43;3.83;;;;;;;;;;5097009;28;20632;-64
2021/05/15 06:50:35;;;;;;;8.90;6.80;;;;;;;;;;5095801;28;20019;-64
2021/05/15 06:53:00;;;;;;;6.95;6.05;;;;;;;;;;5097076;28;20023;-64
2021/05/15 06:55:26;;;;;;;7.00;6.30;;;;;;;;;;5096778;28;20020;-64
2021/05/15 06:57:52;;;;;;;11.57;8.50;;;;;;;;;;5096881;28;20064;-64
2021/05/15 07:00:18;;;;;;;7.43;5.70;;;;;;;;;;5096706;28;20043;-64
2021/05/15 07:02:43;;;;;;;9.00;6.75;;;;;;;;;;5096883;28;20035;-65
2021/05/15 07:05:09;;;;;;;5.43;4.85;;;;;;;;;;5095667;28;20447;-64
2021/05/15 07:07:35;;;;;;;6.78;5.20;;;;;;;;;;5096783;28;20157;-64
2021/05/15 07:10:00;;;;;;;7.50;6.20;;;;;;;;;;5096700;28;20020;-64
2021/05/15 07:12:26;;;;;;;6.07;4.63;;;;;;;;;;5096737;28;20032;-64
2021/05/15 07:14:52;;;;;;;6.50;5.15;;;;;;;;;;5096759;28;20052;-64
2021/05/15 07:17:24;;;;;;;9.35;6.85;;;;;;;;;;5096694;28;20386;-64
2021/05/15 07:19:50;;;;;;;38.33;11.13;;;;;;;;;;5096610;28;20080;-64
2021/05/15 07:22:15;;;;;;;10.40;5.80;;;;;;;;;;5095545;28;20024;-64
2021/05/15 07:24:42;;;;;;;12.88;7.90;;;;;;;;;;5096437;28;20032;-64
2021/05/15 07:27:07;;;;;;;6.10;4.50;;;;;;;;;;5096485;28;20103;-64
2021/05/15 07:29:33;;;;;;;8.65;5.78;;;;;;;;;;5094842;28;20512;-64
2021/05/15 07:31:58;;;;;;;8.95;7.85;;;;;;;;;;5095206;28;20089;-64
2021/05/15 07:34:24;;;;;;;6.22;5.20;;;;;;;;;;5095431;28;20038;-64
2021/05/15 07:36:49;;;;;;;7.78;5.70;;;;;;;;;;5096098;28;20031;-64
2021/05/15 07:39:15;;;;;;;10.00;7.22;;;;;;;;;;5094903;28;20142;-64
2021/05/15 07:41:41;;;;;;;8.82;6.15;;;;;;;;;;5096265;28;20017;-64
2021/05/15 07:44:07;;;;;;;7.47;5.35;;;;;;;;;;5095027;28;20089;-63
2021/05/15 07:46:32;;;;;;;5.68;4.93;;;;;;;;;;5094808;28;20031;-64
2021/05/15 07:48:58;;;;;;;8.70;6.57;;;;;;;;;;5095793;28;20081;-64
2021/05/15 07:51:25;;;;;;;6.90;4.93;;;;;;;;;;5094734;28;20069;-64
2021/05/15 07:53:51;;;;;;;7.15;4.78;;;;;;;;;;5094188;28;20032;-64
2021/05/15 07:56:17;;;;;;;9.35;6.05;;;;;;;;;;5095947;28;20024;-64
2021/05/15 07:58:43;;;;;;;7.40;5.85;;;;;;;;;;5095783;28;20028;-64
2021/05/15 08:01:09;;;;;;;4.70;4.05;;;;;;;;;;5095658;28;20020;-64
2021/05/15 08:03:34;;;;;;;6.38;5.88;;;;;;;;;;5095814;28;20496;-64
2021/05/15 08:06:00;;;;;;;4.53;4.18;;;;;;;;;;5095652;28;20027;-64
2021/05/15 08:08:25;;;;;;;6.80;4.60;;;;;;;;;;5095761;28;20031;-64
2021/05/15 08:10:51;;;;;;;7.93;4.45;;;;;;;;;;5095593;28;20021;-64
2021/05/15 08:13:17;;;;;;;8.32;4.53;;;;;;;;;;5095378;28;20510;-64
2021/05/15 08:15:44;;;;;;;5.97;4.85;;;;;;;;;;5095638;28;20461;-64
2021/05/15 08:18:10;;;;;;;5.82;4.20;;;;;;;;;;5095396;28;20426;-64
2021/05/15 08:20:36;;;;;;;6.15;5.05;;;;;;;;;;5095678;28;20105;-64
2021/05/15 08:23:01;;;;;;;4.40;3.42;;;;;;;;;;5095590;28;20416;-64
2021/05/15 08:25:27;;;;;;;5.03;4.22;;;;;;;;;;5094032;28;20466;-64
2021/05/15 08:27:56;;;;;;;7.50;4.28;;;;;;;;;;5095102;28;20032;-64
2021/05/15 08:30:22;;;;;;;5.75;4.13;;;;;;;;;;5095326;28;20027;-64
2021/05/15 08:32:52;;;;;;;5.18;4.00;;;;;;;;;;5095134;28;20032;-64
2021/05/15 08:35:18;;;;;;;4.83;4.13;;;;;;;;;;5094937;28;20410;-64
2021/05/15 08:37:43;;;;;;;4.63;4.07;;;;;;;;;;5094984;28;20035;-64
2021/05/15 08:40:10;;;;;;;4.53;3.70;;;;;;;;;;5093250;28;20031;-64
2021/05/15 08:42:37;;;;;;;3.85;3.45;;;;;;;;;;5093899;28;20525;-64
2021/05/15 08:45:04;;;;;;;5.82;4.15;;;;;;;;;;5095026;28;20060;-64
2021/05/15 08:47:30;;;;;;;4.53;3.95;;;;;;;;;;5095316;28;20027;-64
2021/05/15 08:50:00;;;;;;;7.85;4.63;;;;;;;;;;5094616;28;20512;-65
2021/05/15 08:52:25;;;;;;;12.13;4.93;;;;;;;;;;5095175;28;20061;-64
2021/05/15 08:54:51;;;;;;;49.20;11.07;;;;;;;;;;5094587;28;20062;-64
2021/05/15 08:57:17;;;;;;;7.53;4.68;;;;;;;;;;5094344;28;20024;-64
2021/05/15 08:59:42;;;;;;;4.60;4.13;;;;;;;;;;5094637;28;20497;-64
2021/05/15 09:02:08;;;;;;;15.07;5.72;;;;;;;;;;5094803;28;20016;-64
2021/05/15 09:04:34;;;;;;;5.47;4.45;;;;;;;;;;5094672;28;20043;-64
2021/05/15 09:07:00;;;;;;;4.50;3.55;;;;;;;;;;5094488;28;20020;-64
2021/05/15 09:09:25;;;;;;;8.43;4.18;;;;;;;;;;5094439;28;20059;-64
2021/05/15 09:11:51;;;;;;;4.13;3.72;;;;;;;;;;5094315;28;20016;-64
2021/05/15 09:14:18;;;;;;;5.22;4.55;;;;;;;;;;5094465;28;20032;-64
2021/05/15 09:16:47;;;;;;;7.72;4.55;;;;;;;;;;5094422;28;20020;-64
2021/05/15 09:19:17;;;;;;;4.82;3.80;;;;;;;;;;5094250;28;20016;-64
2021/05/15 09:21:52;;;;;;;4.13;3.40;;;;;;;;;;5094095;28;20104;-64
2021/05/15 09:24:26;;;;;;;4.20;3.60;;;;;;;;;;5094353;28;20031;-64
2021/05/15 09:26:51;;;;;;;5.15;3.95;;;;;;;;;;5094420;28;20028;-64
2021/05/15 09:29:17;;;;;;;8.10;4.25;;;;;;;;;;5094236;28;20378;-64
2021/05/15 09:31:45;;;;;;;4.00;3.40;;;;;;;;;;5094158;28;20031;-64
2021/05/15 09:34:11;;;;;;;12.18;4.05;;;;;;;;;;5093343;28;20040;-64
2021/05/15 09:36:42;;;;;;;10.48;5.43;;;;;;;;;;5093895;28;20107;-64
2021/05/15 09:39:09;;;;;;;3.80;3.40;;;;;;;;;;5092800;28;20479;-64
2021/05/15 09:41:41;;;;;;;42.38;10.65;;;;;;;;;;5092505;28;20031;-64
2021/05/15 09:44:08;;;;;;;57.38;12.13;;;;;;;;;;5093828;28;20032;-64
2021/05/15 09:46:34;;;;;;;75.72;13.48;;;;;;;;;;5093388;28;20063;-65
2021/05/15 09:49:00;;;;;;;23.00;6.78;;;;;;;;;;5093832;28;20063;-64
2021/05/15 09:51:26;;;;;;;27.83;8.00;;;;;;;;;;5093751;28;20051;-64
2021/05/15 09:53:52;;;;;;;8.35;4.07;;;;;;;;;;5093682;28;20028;-64
2021/05/15 09:56:30;;;;;;;57.40;12.00;;;;;;;;;;5093673;28;20466;-64
2021/05/15 09:58:56;;;;;;;10.00;3.20;;;;;;;;;;5093878;28;20031;-64
2021/05/15 10:01:26;;;;;;;7.10;3.95;;;;;;;;;;5093672;28;20016;-64
2021/05/15 10:04:02;;;;;;;3.17;2.88;;;;;;;;;;5093771;28;20073;-64
2021/05/15 10:06:28;;;;;;;3.38;3.08;;;;;;;;;;5093809;28;20032;-64
2021/05/15 10:08:54;;;;;;;4.20;3.53;;;;;;;;;;5092652;28;20020;-64
2021/05/15 10:11:21;;;;;;;3.67;3.38;;;;;;;;;;5109289;28;20028;-64
2021/05/15 10:13:47;;;;;;;3.20;2.90;;;;;;;;;;5093155;28;20133;-64
2021/05/15 10:16:12;;;;;;;6.35;2.83;;;;;;;;;;5093418;28;20024;-64
2021/05/15 10:18:38;;;;;;;3.85;3.45;;;;;;;;;;5093431;28;20035;-64
2021/05/15 10:21:03;;;;;;;3.78;3.47;;;;;;;;;;5093416;28;20370;-64
2021/05/15 10:23:39;;;;;;;11.70;4.85;;;;;;;;;;5093585;28;20038;-64
2021/05/15 10:26:17;;;;;;;4.20;3.38;;;;;;;;;;5093492;28;20032;-64
2021/05/15 10:28:45;;;;;;;7.30;4.45;;;;;;;;;;5093287;28;20048;-64
2021/05/15 10:31:15;;;;;;;7.18;3.50;;;;;;;;;;5093533;28;20035;-64
2021/05/15 10:33:46;;;;;;;5.78;2.90;;;;;;;;;;5092779;28;20140;-65
2021/05/15 10:36:22;;;;;;;2.65;2.13;;;;;;;;;;5093478;28;20035;-64
2021/05/15 10:38:49;;;;;;;4.20;2.45;;;;;;;;;;5093303;28;20028;-64
2021/05/15 10:41:20;;;;;;;4.70;3.42;;;;;;;;;;5093391;28;20016;-64
2021/05/15 10:43:48;;;;;;;2.38;2.05;;;;;;;;;;5092896;28;20027;-64
2021/05/15 10:46:19;;;;;;;2.92;2.70;;;;;;;;;;5093130;28;20020;-64
2021/05/15 10:48:54;;;;;;;2.20;2.00;;;;;;;;;;5091953;28;20028;-64
2021/05/15 10:51:29;;;;;;;2.58;2.20;;;;;;;;;;5093252;28;20056;-64
2021/05/15 10:53:55;;;;;;;3.83;2.80;;;;;;;;;;5093173;28;20478;-64
2021/05/15 10:56:25;;;;;;;2.95;2.00;;;;;;;;;;5093196;28;20020;-64
2021/05/15 10:58:51;;;;;;;2.28;2.08;;;;;;;;;;5091664;28;20028;-64
2021/05/15 11:01:17;;;;;;;2.20;2.00;;;;;;;;;;5091961;28;20026;-64
2021/05/15 11:03:43;;;;;;;4.45;2.03;;;;;;;;;;5093059;28;20466;-64
2021/05/15 11:06:13;;;;;;;2.20;1.98;;;;;;;;;;5091693;28;20024;-64
2021/05/15 11:08:39;;;;;;;2.45;1.88;;;;;;;;;;5093020;28;20028;-64
2021/05/15 11:11:09;;;;;;;2.95;2.30;;;;;;;;;;5093032;28;20012;-64
2021/05/15 11:13:44;;;;;;;2.08;1.88;;;;;;;;;;5092699;28;20032;-64
2021/05/15 11:16:09;;;;;;;2.60;2.15;;;;;;;;;;5092984;28;20028;-64
2021/05/15 11:18:36;;;;;;;3.25;2.50;;;;;;;;;;5091492;28;20016;-64
2021/05/15 11:21:05;;;;;;;4.10;2.55;;;;;;;;;;5094683;28;20028;-64
2021/05/15 11:23:31;;;;;;;2.45;2.25;;;;;;;;;;5078413;28;20024;-65
2021/05/15 11:26:04;;;;;;;2.00;1.85;;;;;;;;;;5096521;28;20020;-64
2021/05/15 11:28:31;;;;;;;2.67;2.47;;;;;;;;;;5096414;28;20486;-64
2021/05/15 11:30:56;;;;;;;3.75;3.03;;;;;;;;;;5096214;28;20024;-64
2021/05/15 11:33:22;;;;;;;2.53;2.20;;;;;;;;;;5096125;28;20048;-65
2021/05/15 11:35:49;;;;;;;3.42;2.35;;;;;;;;;;5095154;28;20028;-64
2021/05/15 11:38:21;;;;;;;3.33;2.58;;;;;;;;;;5095596;28;20519;-65
2021/05/15 11:40:47;;;;;;;2.50;2.30;;;;;;;;;;5093237;28;20024;-64
2021/05/15 11:43:16;;;;;;;2.22;2.08;;;;;;;;;;5096101;28;20521;-65
2021/05/15 11:45:42;;;;;;;2.83;2.58;;;;;;;;;;5095985;28;20063;-65
2021/05/15 11:48:10;;;;;;;2.50;2.05;;;;;;;;;;5095842;28;20051;-64
2021/05/15 11:50:36;;;;;;;2.60;2.00;;;;;;;;;;5095756;28;20031;-64
2021/05/15 11:53:02;;;;;;;2.03;1.60;;;;;;;;;;5095633;28;20024;-64
2021/05/15 11:55:28;;;;;;;1.73;1.63;;;;;;;;;;5095490;28;20035;-64
2021/05/15 11:57:58;;;;;;;2.15;1.95;;;;;;;;;;5094099;28;20409;-64
2021/05/15 12:00:28;;;;;;;2.47;1.90;;;;;;;;;;5094185;28;20024;-64
2021/05/15 12:02:54;;;;;;;2.60;2.45;;;;;;;;;;5095236;28;20690;-64
2021/05/15 12:05:20;;;;;;;3.72;2.88;;;;;;;;;;5095826;28;20123;-64
2021/05/15 12:07:47;;;;;;;2.80;2.20;;;;;;;;;;5094361;28;20043;-64
2021/05/15 12:10:17;;;;;;;2.97;2.40;;;;;;;;;;5094190;28;20366;-64
2021/05/15 12:13:03;;;;;;;3.78;2.13;;;;;;;;;;5095511;28;20039;-64
2021/05/15 12:15:30;;;;;;;2.13;1.92;;;;;;;;;;5094090;28;20048;-64
2021/05/15 12:17:59;;;;;;;2.42;2.20;;;;;;;;;;5095273;28;20024;-64
2021/05/15 12:20:31;;;;;;;3.60;2.03;;;;;;;;;;5095398;28;20523;-64
2021/05/15 12:23:09;;;;;;;1.90;1.80;;;;;;;;;;5094563;28;20097;-64
2021/05/15 12:25:35;;;;;;;2.67;1.90;;;;;;;;;;5094305;28;20039;-64
2021/05/15 12:28:01;;;;;;;2.17;2.00;;;;;;;;;;5095108;28;20020;-64
2021/05/15 12:30:27;;;;;;;2.35;2.17;;;;;;;;;;5095242;28;20343;-64
2021/05/15 12:33:00;;;;;;;2.30;2.20;;;;;;;;;;5093756;28;20028;-64
2021/05/15 12:35:25;;;;;;;2.92;2.33;;;;;;;;;;5094475;28;20101;-64
2021/05/15 12:37:54;;;;;;;2.88;2.25;;;;;;;;;;5093859;28;20028;-64
2021/05/15 12:40:20;;;;;;;2.03;1.83;;;;;;;;;;5093509;28;20035;-64
2021/05/15 12:42:45;;;;;;;2.55;2.10;;;;;;;;;;5094526;28;20028;-64
2021/05/15 12:45:14;;;;;;;3.30;3.00;;;;;;;;;;5094887;28;20462;-64
2021/05/15 12:47:40;;;;;;;3.10;2.33;;;;;;;;;;5095094;28;20522;-64
2021/05/15 12:50:35;;;;;;;2.05;1.95;;;;;;;;;;5093436;28;20366;-64
2021/05/15 12:53:10;;;;;;;2.10;2.00;;;;;;;;;;5085346;28;20065;-64
2021/05/15 12:55:46;;;;;;;2.30;2.20;;;;;;;;;;5093648;28;20038;-64
2021/05/15 12:58:12;;;;;;;3.40;1.98;;;;;;;;;;5093113;28;20496;-64
2021/05/15 13:00:37;;;;;;;2.35;1.60;;;;;;;;;;5094561;28;20024;-64
2021/05/15 13:03:04;;;;;;;2.00;1.90;;;;;;;;;;5094570;28;20020;-64
2021/05/15 13:05:39;;;;;;;2.28;1.80;;;;;;;;;;5094241;28;20027;-64
2021/05/15 13:08:09;;;;;;;2.10;1.90;;;;;;;;;;5094674;28;20020;-64
2021/05/15 13:10:35;;;;;;;2.42;2.17;;;;;;;;;;5074372;28;20110;-64
2021/05/15 13:13:03;;;;;;;3.35;1.95;;;;;;;;;;5084776;28;20438;-64
2021/05/15 13:15:29;;;;;;;2.40;2.00;;;;;;;;;;5093681;28;20035;-64
2021/05/15 13:17:55;;;;;;;2.97;2.00;;;;;;;;;;5093340;28;20417;-64
2021/05/15 13:20:20;;;;;;;2.30;2.08;;;;;;;;;;5093997;28;20154;-64
2021/05/15 13:22:46;;;;;;;2.10;2.00;;;;;;;;;;5094100;28;20114;-64
2021/05/15 13:25:14;;;;;;;3.53;1.80;;;;;;;;;;5094006;28;20114;-64
2021/05/15 13:27:39;;;;;;;1.63;1.52;;;;;;;;;;5091983;28;20024;-64
2021/05/15 13:30:05;;;;;;;1.52;1.42;;;;;;;;;;5093040;28;20047;-64
2021/05/15 13:32:31;;;;;;;1.50;1.40;;;;;;;;;;5093686;28;20048;-64
2021/05/15 13:34:56;;;;;;;1.77;1.65;;;;;;;;;;5092937;28;20181;-64
2021/05/15 13:37:24;;;;;;;1.52;1.42;;;;;;;;;;5092245;28;20039;-64
2021/05/15 13:39:49;;;;;;;3.25;1.70;;;;;;;;;;5093911;28;20408;-64
2021/05/15 13:42:15;;;;;;;1.30;1.30;;;;;;;;;;5094049;28;20020;-64
2021/05/15 13:44:40;;;;;;;2.10;1.50;;;;;;;;;;5094007;28;20028;-64
2021/05/15 13:47:06;;;;;;;1.60;1.50;;;;;;;;;;5094101;28;20378;-64
2021/05/15 13:49:31;;;;;;;3.05;1.40;;;;;;;;;;5093717;28;20078;-64
2021/05/15 13:51:57;;;;;;;1.48;1.38;;;;;;;;;;5093561;28;20027;-64
2021/05/15 13:54:22;;;;;;;1.20;1.10;;;;;;;;;;5093797;28;20032;-64
2021/05/15 13:56:48;;;;;;;0.88;0.88;;;;;;;;;;5093835;28;20473;-64
2021/05/15 13:59:13;;;;;;;2.00;1.13;;;;;;;;;;5093541;28;20028;-64
2021/05/15 14:01:40;;;;;;;1.42;1.33;;;;;;;;;;5093871;28;20444;-64
2021/05/15 14:04:06;;;;;;;1.13;0.95;;;;;;;;;;5093723;28;20035;-64
2021/05/15 14:06:31;;;;;;;1.27;1.23;;;;;;;;;;5092303;28;20024;-64
2021/05/15 14:08:57;;;;;;;1.52;1.25;;;;;;;;;;5093618;28;20373;-64
2021/05/15 14:11:25;;;;;;;1.98;1.15;;;;;;;;;;5092484;28;20094;-64
2021/05/15 14:13:50;;;;;;;0.98;0.98;;;;;;;;;;5093324;28;20031;-64
2021/05/15 14:16:16;;;;;;;1.20;1.10;;;;;;;;;;5093498;28;20016;-65
2021/05/15 14:18:41;;;;;;;1.00;1.00;;;;;;;;;;5092209;28;20534;-64
2021/05/15 14:21:08;;;;;;;2.78;1.20;;;;;;;;;;5093202;28;20424;-65
2021/05/15 14:23:33;;;;;;;1.83;1.20;;;;;;;;;;5093501;28;20036;-64
2021/05/15 14:25:59;;;;;;;1.13;1.02;;;;;;;;;;5093291;28;20016;-64
2021/05/15 14:28:25;;;;;;;0.82;0.82;;;;;;;;;;5093686;28;20033;-64
2021/05/15 14:30:51;;;;;;;1.10;0.93;;;;;;;;;;5093703;28;20023;-64